createdAt,value
2022-08-30T00:00:45.400Z,18.00
2022-08-30T00:03:21.014Z,17.80
2022-08-30T00:05:51.948Z,17.70
2022-08-30T00:08:27.532Z,17.80
2022-08-30T00:10:59.159Z,17.80
2022-08-30T00:13:26.859Z,17.80
2022-08-30T00:15:57.203Z,17.80
2022-08-30T00:18:25.968Z,17.80
2022-08-30T00:20:55.447Z,17.70
2022-08-30T00:23:26.509Z,17.60
2022-08-30T00:25:54.695Z,17.60
2022-08-30T00:28:27.902Z,17.70
2022-08-30T00:30:57.928Z,17.70
2022-08-30T00:33:29.753Z,17.60
2022-08-30T00:35:57.532Z,17.60
2022-08-30T00:38:27.560Z,17.60
2022-08-30T00:40:58.460Z,17.60
2022-08-30T00:43:34.588Z,17.60
2022-08-30T00:46:13.563Z,17.60
2022-08-30T00:48:45.349Z,17.50
2022-08-30T00:51:17.900Z,17.50
2022-08-30T00:53:51.001Z,17.50
2022-08-30T00:56:19.458Z,17.50
2022-08-30T00:58:51.125Z,17.50
2022-08-30T01:01:19.739Z,17.50
2022-08-30T01:03:56.476Z,17.50
2022-08-30T01:06:26.474Z,17.50
2022-08-30T01:09:04.802Z,17.40
2022-08-30T01:11:38.416Z,17.40
2022-08-30T01:14:13.554Z,17.40
2022-08-30T01:16:43.783Z,17.30
2022-08-30T01:19:32.329Z,17.30
2022-08-30T01:22:17.812Z,17.20
2022-08-30T01:24:50.992Z,17.20
2022-08-30T01:27:19.309Z,17.10
2022-08-30T01:29:47.389Z,17.10
2022-08-30T01:32:29.549Z,17.20
2022-08-30T01:35:00.212Z,17.20
2022-08-30T01:37:31.807Z,17.20
2022-08-30T01:40:02.787Z,17.20
2022-08-30T01:42:30.548Z,17.20
2022-08-30T01:45:00.859Z,17.20
2022-08-30T01:47:37.210Z,17.20
2022-08-30T01:50:07.587Z,17.20
2022-08-30T01:52:40.048Z,17.10
2022-08-30T01:55:12.764Z,17.10
2022-08-30T01:57:53.908Z,17.10
2022-08-30T02:00:21.745Z,17.10
2022-08-30T02:02:52.369Z,17.00
2022-08-30T02:05:20.295Z,17.00
2022-08-30T02:07:48.101Z,17.00
2022-08-30T02:10:16.125Z,17.00
2022-08-30T02:12:48.941Z,17.00
2022-08-30T02:15:17.278Z,16.90
2022-08-30T02:17:45.035Z,16.90
2022-08-30T02:20:12.935Z,16.90
2022-08-30T02:22:40.919Z,16.90
2022-08-30T02:25:20.923Z,16.90
2022-08-30T02:27:49.482Z,16.90
2022-08-30T02:30:26.675Z,16.90
2022-08-30T02:32:54.771Z,16.90
2022-08-30T02:35:25.303Z,16.90
2022-08-30T02:37:53.969Z,16.90
2022-08-30T02:40:22.692Z,16.80
2022-08-30T02:42:50.615Z,16.90
2022-08-30T02:45:18.521Z,16.80
2022-08-30T02:47:47.314Z,16.80
2022-08-30T02:50:16.059Z,16.90
2022-08-30T02:52:48.324Z,16.90
2022-08-30T02:55:17.152Z,17.00
2022-08-30T02:57:48.003Z,17.00
2022-08-30T03:00:22.486Z,17.00
2022-08-30T03:02:55.897Z,16.90
2022-08-30T03:05:24.139Z,17.00
2022-08-30T03:07:54.702Z,17.00
2022-08-30T03:10:34.113Z,17.00
2022-08-30T03:13:01.954Z,16.90
2022-08-30T03:15:33.918Z,16.90
2022-08-30T03:18:01.948Z,16.90
2022-08-30T03:20:32.929Z,16.90
2022-08-30T03:23:00.956Z,16.90
2022-08-30T03:25:31.648Z,16.80
2022-08-30T03:27:59.311Z,16.80
2022-08-30T03:30:27.939Z,16.80
2022-08-30T03:33:00.669Z,16.70
2022-08-30T03:35:33.218Z,16.80
2022-08-30T03:38:08.338Z,16.70
2022-08-30T03:40:38.815Z,16.70
2022-08-30T03:43:15.055Z,16.70
2022-08-30T03:45:43.319Z,16.70
2022-08-30T03:48:13.760Z,16.70
2022-08-30T03:50:41.443Z,16.70
2022-08-30T03:53:16.628Z,16.70
2022-08-30T03:55:49.978Z,16.60
2022-08-30T03:58:20.456Z,16.60
2022-08-30T04:00:48.264Z,16.50
2022-08-30T04:03:16.404Z,16.50
2022-08-30T04:05:47.544Z,16.50
2022-08-30T04:08:20.615Z,16.50
2022-08-30T04:10:49.413Z,16.50
2022-08-30T04:13:20.757Z,16.40
2022-08-30T04:15:52.334Z,16.40
2022-08-30T04:18:21.825Z,16.40
2022-08-30T04:20:55.674Z,16.40
2022-08-30T04:23:23.724Z,16.30
2022-08-30T04:25:51.615Z,16.40
2022-08-30T04:28:25.132Z,16.30
2022-08-30T04:31:16.267Z,16.30
2022-08-30T04:33:47.417Z,16.30
2022-08-30T04:36:23.257Z,16.30
2022-08-30T04:38:51.116Z,16.30
2022-08-30T04:41:21.387Z,16.20
2022-08-30T04:43:56.323Z,16.20
2022-08-30T04:46:24.928Z,16.20
2022-08-30T04:48:52.649Z,16.20
2022-08-30T04:51:19.756Z,16.20
2022-08-30T04:53:46.904Z,16.20
2022-08-30T04:56:17.840Z,16.20
2022-08-30T04:58:46.781Z,16.20
2022-08-30T05:01:44.639Z,16.20
2022-08-30T05:04:12.208Z,16.20
2022-08-30T05:06:39.171Z,16.20
2022-08-30T05:09:06.184Z,16.30
2022-08-30T05:11:33.189Z,16.30
2022-08-30T05:14:00.197Z,16.40
2022-08-30T05:16:27.709Z,16.50
2022-08-30T05:18:54.891Z,16.50
2022-08-30T05:21:25.526Z,16.60
2022-08-30T05:23:57.546Z,16.60
2022-08-30T05:26:28.188Z,16.50
2022-08-30T05:28:55.839Z,16.60
2022-08-30T05:31:32.493Z,16.60
2022-08-30T05:33:59.785Z,16.60
2022-08-30T05:36:29.565Z,16.60
2022-08-30T05:38:57.138Z,16.60
2022-08-30T05:41:26.439Z,16.70
2022-08-30T05:43:59.628Z,16.70
2022-08-30T05:46:30.176Z,16.80
2022-08-30T05:48:58.002Z,16.80
2022-08-30T05:51:28.845Z,16.90
2022-08-30T05:53:57.815Z,16.90
2022-08-30T05:56:33.050Z,17.00
2022-08-30T05:59:01.303Z,17.10
2022-08-30T06:01:37.883Z,17.10
2022-08-30T06:04:06.213Z,17.20
2022-08-30T06:06:36.131Z,17.20
2022-08-30T06:09:07.831Z,17.20
2022-08-30T06:11:35.037Z,17.20
2022-08-30T06:14:03.421Z,17.30
2022-08-30T06:16:30.635Z,17.20
2022-08-30T06:18:58.877Z,17.30
2022-08-30T06:21:37.434Z,17.30
2022-08-30T06:24:06.425Z,17.30
2022-08-30T06:26:38.624Z,17.40
2022-08-30T06:29:05.587Z,17.50
2022-08-30T06:31:33.793Z,17.60
2022-08-30T06:34:01.034Z,17.70
2022-08-30T06:36:28.222Z,17.80
2022-08-30T06:38:57.534Z,17.90
2022-08-30T06:41:30.480Z,18.00
2022-08-30T06:43:59.145Z,18.10
2022-08-30T06:46:32.569Z,18.20
2022-08-30T06:49:00.647Z,18.30
2022-08-30T06:51:31.551Z,18.40
2022-08-30T06:53:59.433Z,18.50
2022-08-30T06:56:27.587Z,18.60
2022-08-30T06:58:54.923Z,18.70
2022-08-30T07:01:24.741Z,18.80
2022-08-30T07:03:52.113Z,18.90
2022-08-30T07:06:19.851Z,19.00
2022-08-30T07:08:47.131Z,19.00
2022-08-30T07:11:15.053Z,19.00
2022-08-30T07:13:42.181Z,19.10
2022-08-30T07:16:12.000Z,19.10
2022-08-30T07:18:51.536Z,19.30
2022-08-30T07:21:20.831Z,19.30
2022-08-30T07:23:53.288Z,19.50
2022-08-30T07:26:30.710Z,19.50
2022-08-30T07:28:58.813Z,19.70
2022-08-30T07:31:26.097Z,19.70
2022-08-30T07:33:53.588Z,19.90
2022-08-30T07:36:22.054Z,19.90
2022-08-30T07:38:52.673Z,20.00
2022-08-30T07:41:23.568Z,20.10
2022-08-30T07:43:50.621Z,20.20
2022-08-30T07:46:18.602Z,20.40
2022-08-30T07:48:45.809Z,20.50
2022-08-30T07:51:23.225Z,20.70
2022-08-30T07:53:50.395Z,20.90
2022-08-30T07:56:17.373Z,21.10
2022-08-30T07:58:44.333Z,21.40
2022-08-30T08:01:13.221Z,21.60
2022-08-30T08:03:42.334Z,21.70
2022-08-30T08:06:12.120Z,21.90
2022-08-30T08:08:40.482Z,22.10
2022-08-30T08:11:19.332Z,22.10
2022-08-30T08:13:54.147Z,22.30
2022-08-30T08:16:24.270Z,22.40
2022-08-30T08:18:52.376Z,22.50
2022-08-30T08:21:19.639Z,22.70
2022-08-30T08:23:47.019Z,22.50
2022-08-30T08:26:14.090Z,22.50
2022-08-30T08:28:41.207Z,22.50
2022-08-30T08:31:19.351Z,22.50
2022-08-30T08:33:46.612Z,22.70
2022-08-30T08:36:14.159Z,22.80
2022-08-30T08:38:41.584Z,22.90
2022-08-30T08:41:30.064Z,23.00
2022-08-30T08:43:57.199Z,23.00
2022-08-30T08:46:28.593Z,22.90
2022-08-30T08:49:00.836Z,23.00
2022-08-30T08:51:51.596Z,23.10
2022-08-30T08:54:42.364Z,23.30
2022-08-30T08:57:13.849Z,23.30
2022-08-30T08:59:44.958Z,23.30
2022-08-30T09:02:39.926Z,23.30
2022-08-30T09:05:08.227Z,23.50
2022-08-30T09:07:42.214Z,23.60
2022-08-30T09:10:09.809Z,23.50
2022-08-30T09:12:37.091Z,23.60
2022-08-30T09:15:27.548Z,23.60
2022-08-30T09:17:58.616Z,23.70
2022-08-30T09:20:37.461Z,23.80
2022-08-30T09:23:17.516Z,23.80
2022-08-30T09:26:09.222Z,23.90
2022-08-30T09:28:49.593Z,24.10
2022-08-30T09:31:26.392Z,24.20
2022-08-30T09:34:05.274Z,24.20
2022-08-30T09:36:45.007Z,24.30
2022-08-30T09:39:39.503Z,24.50
2022-08-30T09:42:23.901Z,24.70
2022-08-30T09:44:51.323Z,24.50
2022-08-30T09:47:27.780Z,24.70
2022-08-30T09:50:24.261Z,24.90
2022-08-30T09:56:10.651Z,25.30
2022-08-30T09:58:50.035Z,25.50
2022-08-30T10:01:43.099Z,25.60
2022-08-30T10:04:17.485Z,25.50
2022-08-30T10:06:58.449Z,25.60
2022-08-30T10:09:35.554Z,25.60
2022-08-30T10:12:08.292Z,25.90
2022-08-30T10:14:51.568Z,25.70
2022-08-30T10:17:27.996Z,25.60
2022-08-30T10:20:25.118Z,25.60
2022-08-30T10:23:16.984Z,25.70
2022-08-30T10:25:53.690Z,25.60
2022-08-30T10:28:42.244Z,25.90
2022-08-30T10:31:24.400Z,25.80
2022-08-30T10:33:57.492Z,25.80
2022-08-30T10:36:40.200Z,25.90
2022-08-30T10:39:10.340Z,25.90
2022-08-30T10:41:48.838Z,26.00
2022-08-30T10:44:27.771Z,26.00
2022-08-30T10:47:07.135Z,26.10
2022-08-30T10:49:44.866Z,26.30
2022-08-30T10:52:25.705Z,26.50
2022-08-30T10:55:05.373Z,26.80
2022-08-30T10:57:33.121Z,26.70
2022-08-30T11:00:25.073Z,26.50
2022-08-30T11:03:36.415Z,26.70
2022-08-30T11:06:16.440Z,26.60
2022-08-30T11:09:09.563Z,26.60
2022-08-30T11:12:08.471Z,26.60
2022-08-30T11:14:41.720Z,26.70
2022-08-30T11:17:35.883Z,26.70
2022-08-30T11:20:05.820Z,26.60
2022-08-30T11:22:39.136Z,26.60
2022-08-30T11:25:15.773Z,26.60
2022-08-30T11:27:53.727Z,26.70
2022-08-30T11:30:27.491Z,26.70
2022-08-30T11:33:11.011Z,26.60
2022-08-30T11:35:49.909Z,26.70
2022-08-30T11:38:25.757Z,26.70
2022-08-30T11:40:56.235Z,26.80
2022-08-30T11:43:40.195Z,27.10
2022-08-30T11:46:28.727Z,27.20
2022-08-30T11:49:08.154Z,27.30
2022-08-30T11:52:26.608Z,27.10
2022-08-30T11:55:10.969Z,26.90
2022-08-30T11:57:54.497Z,27.00
2022-08-30T12:00:46.638Z,27.00
2022-08-30T12:03:30.912Z,27.20
2022-08-30T12:06:06.135Z,27.30
2022-08-30T12:08:36.191Z,27.30
2022-08-30T12:11:06.765Z,27.30
2022-08-30T12:13:39.490Z,27.20
2022-08-30T12:16:16.390Z,27.10
2022-08-30T12:19:00.139Z,27.20
2022-08-30T12:21:43.757Z,27.20
2022-08-30T12:24:21.129Z,27.30
2022-08-30T12:26:51.421Z,27.20
2022-08-30T12:29:20.019Z,27.20
2022-08-30T12:32:05.404Z,27.20
2022-08-30T12:34:41.867Z,27.40
2022-08-30T12:37:31.464Z,27.50
2022-08-30T12:40:09.923Z,27.40
2022-08-30T12:42:41.354Z,27.30
2022-08-30T12:45:14.452Z,27.50
2022-08-30T12:47:49.839Z,27.50
2022-08-30T12:50:24.964Z,27.20
2022-08-30T12:53:00.080Z,27.20
2022-08-30T12:55:34.874Z,27.30
2022-08-30T12:58:07.524Z,27.50
2022-08-30T13:00:40.970Z,27.60
2022-08-30T13:03:39.389Z,27.60
2022-08-30T13:06:08.165Z,27.40
2022-08-30T13:08:48.932Z,27.50
2022-08-30T13:11:22.081Z,27.60
2022-08-30T13:13:58.415Z,27.60
2022-08-30T13:16:36.861Z,27.50
2022-08-30T13:19:22.516Z,27.60
2022-08-30T13:21:55.342Z,27.80
2022-08-30T13:24:25.671Z,27.70
2022-08-30T13:26:55.929Z,27.90
2022-08-30T13:29:26.997Z,27.80
2022-08-30T13:31:55.267Z,27.80
2022-08-30T13:34:22.906Z,27.90
2022-08-30T13:36:53.536Z,27.90
2022-08-30T13:39:21.800Z,27.90
2022-08-30T13:41:49.682Z,27.90
2022-08-30T13:44:19.064Z,28.00
2022-08-30T13:46:54.022Z,28.00
2022-08-30T13:49:43.767Z,27.90
2022-08-30T13:52:22.596Z,28.00
2022-08-30T13:54:51.813Z,28.10
2022-08-30T14:00:12.681Z,28.00
2022-08-30T14:02:46.357Z,27.70
2022-08-30T14:05:37.528Z,27.40
2022-08-30T14:08:03.075Z,27.40
2022-08-30T14:10:32.281Z,27.40
2022-08-30T14:13:08.575Z,27.40
2022-08-30T14:15:39.683Z,27.40
2022-08-30T14:18:07.937Z,27.50
2022-08-30T14:20:38.696Z,27.60
2022-08-30T14:23:10.243Z,27.60
2022-08-30T14:25:40.773Z,27.40
2022-08-30T14:28:14.846Z,27.40
2022-08-30T14:30:42.409Z,27.50
2022-08-30T14:33:09.748Z,27.60
2022-08-30T14:35:36.814Z,27.40
2022-08-30T14:38:04.534Z,27.50
2022-08-30T14:40:33.356Z,27.40
2022-08-30T14:43:00.366Z,27.50
2022-08-30T14:45:27.398Z,27.60
2022-08-30T14:47:57.551Z,27.60
2022-08-30T14:50:25.370Z,27.50
2022-08-30T14:52:54.997Z,27.40
2022-08-30T14:55:22.125Z,27.30
2022-08-30T14:57:51.289Z,27.40
2022-08-30T15:00:19.806Z,27.30
2022-08-30T15:02:46.834Z,27.20
2022-08-30T15:05:13.961Z,27.20
2022-08-30T15:07:40.960Z,27.00
2022-08-30T15:10:09.684Z,27.00
2022-08-30T15:12:36.890Z,27.00
2022-08-30T15:15:04.754Z,26.80
2022-08-30T15:17:32.895Z,26.90
2022-08-30T15:19:59.873Z,26.70
2022-08-30T15:22:27.655Z,26.80
2022-08-30T15:24:55.791Z,26.60
2022-08-30T15:27:23.972Z,26.60
2022-08-30T15:29:50.990Z,26.60
2022-08-30T15:32:17.993Z,26.70
2022-08-30T15:34:45.419Z,26.70
2022-08-30T15:37:23.549Z,26.60
2022-08-30T15:39:52.823Z,26.60
2022-08-30T15:42:20.151Z,26.60
2022-08-30T15:44:53.989Z,26.60
2022-08-30T15:47:22.831Z,26.50
2022-08-30T15:49:57.591Z,26.60
2022-08-30T15:52:28.191Z,26.60
2022-08-30T15:54:56.000Z,26.50
2022-08-30T15:57:23.432Z,26.40
2022-08-30T15:59:50.594Z,26.40
2022-08-30T16:02:17.804Z,26.40
2022-08-30T16:04:46.534Z,26.20
2022-08-30T16:07:13.761Z,26.30
2022-08-30T16:09:40.924Z,26.40
2022-08-30T16:12:09.846Z,26.20
2022-08-30T16:14:37.282Z,26.20
2022-08-30T16:17:05.194Z,26.20
2022-08-30T16:19:32.451Z,26.10
2022-08-30T16:21:59.575Z,26.00
2022-08-30T16:24:27.170Z,26.00
2022-08-30T16:26:54.206Z,25.80
2022-08-30T16:29:21.553Z,25.80
2022-08-30T16:31:48.984Z,25.80
2022-08-30T16:34:20.138Z,25.80
2022-08-30T16:36:47.543Z,25.70
2022-08-30T16:39:15.212Z,25.50
2022-08-30T16:41:44.567Z,25.40
2022-08-30T16:44:12.014Z,25.40
2022-08-30T16:46:41.265Z,25.40
2022-08-30T16:49:10.493Z,25.30
2022-08-30T16:51:38.553Z,25.30
2022-08-30T16:54:07.857Z,25.20
2022-08-30T16:56:35.908Z,25.20
2022-08-30T16:59:07.029Z,25.10
2022-08-30T17:01:38.305Z,25.10
2022-08-30T17:04:08.141Z,25.10
2022-08-30T17:06:35.855Z,25.00
2022-08-30T17:09:04.421Z,25.10
2022-08-30T17:11:32.667Z,25.10
2022-08-30T17:13:59.702Z,25.10
2022-08-30T17:16:30.087Z,25.10
2022-08-30T17:18:59.750Z,25.00
2022-08-30T17:21:29.203Z,24.90
2022-08-30T17:24:01.550Z,24.90
2022-08-30T17:26:31.837Z,24.90
2022-08-30T17:28:59.125Z,24.90
2022-08-30T17:31:29.461Z,24.80
2022-08-30T17:34:02.925Z,24.80
2022-08-30T17:36:35.610Z,24.70
2022-08-30T17:39:11.328Z,24.70
2022-08-30T17:41:50.239Z,24.50
2022-08-30T17:44:25.818Z,24.50
2022-08-30T17:46:53.901Z,24.50
2022-08-30T17:49:21.403Z,24.50
2022-08-30T17:51:55.684Z,24.40
2022-08-30T17:54:24.571Z,24.30
2022-08-30T17:56:53.036Z,24.30
2022-08-30T17:59:25.032Z,24.20
2022-08-30T18:01:54.558Z,24.20
2022-08-30T18:04:21.864Z,24.10
2022-08-30T18:06:52.661Z,24.00
2022-08-30T18:09:19.626Z,24.00
2022-08-30T18:11:48.468Z,23.90
2022-08-30T18:14:16.150Z,23.90
2022-08-30T18:16:53.836Z,23.90
2022-08-30T18:19:25.754Z,23.90
2022-08-30T18:21:53.949Z,23.80
2022-08-30T18:24:22.083Z,23.80
2022-08-30T18:26:49.512Z,23.80
2022-08-30T18:29:21.268Z,23.80
2022-08-30T18:31:55.908Z,23.80
2022-08-30T18:34:23.584Z,23.80
2022-08-30T18:36:50.668Z,23.70
2022-08-30T18:39:17.651Z,23.60
2022-08-30T18:41:44.784Z,23.60
2022-08-30T18:47:00.666Z,23.50
2022-08-30T18:49:29.468Z,23.50
2022-08-30T18:52:01.096Z,23.50
2022-08-30T18:54:28.283Z,23.50
2022-08-30T18:56:55.506Z,23.40
2022-08-30T18:59:22.658Z,23.30
2022-08-30T19:02:03.237Z,23.30
2022-08-30T19:04:35.412Z,23.40
2022-08-30T19:07:04.682Z,23.30
2022-08-30T19:09:39.909Z,23.20
2022-08-30T19:12:12.533Z,23.10
2022-08-30T19:14:41.236Z,23.20
2022-08-30T19:17:08.449Z,23.10
2022-08-30T19:19:46.338Z,23.10
2022-08-30T19:22:19.949Z,23.10
2022-08-30T19:24:49.710Z,23.00
2022-08-30T19:27:23.138Z,23.00
2022-08-30T19:33:14.359Z,22.90
2022-08-30T19:35:41.603Z,22.90
2022-08-30T19:38:08.959Z,22.90
2022-08-30T19:40:36.187Z,22.80
2022-08-30T19:43:05.211Z,22.70
2022-08-30T19:45:33.939Z,22.80
2022-08-30T19:48:02.025Z,22.80
2022-08-30T19:50:30.131Z,22.70
2022-08-30T19:52:57.214Z,22.80
2022-08-30T19:55:28.743Z,22.80
2022-08-30T19:57:59.108Z,22.80
2022-08-30T20:00:26.705Z,22.80
2022-08-30T20:02:53.824Z,22.60
2022-08-30T20:05:22.223Z,22.60
2022-08-30T20:07:51.592Z,22.60
2022-08-30T20:10:20.558Z,22.50
2022-08-30T20:12:49.820Z,22.50
2022-08-30T20:15:18.243Z,22.50
2022-08-30T20:18:05.533Z,22.50
2022-08-30T20:20:36.626Z,22.40
2022-08-30T20:23:05.161Z,22.40
2022-08-30T20:24:29.291Z,23.60
2022-08-30T20:25:32.337Z,22.40
2022-08-30T20:28:00.475Z,22.30
2022-08-30T20:30:27.536Z,22.40
2022-08-30T20:32:54.698Z,22.40
2022-08-30T20:35:23.726Z,22.30
2022-08-30T20:37:51.130Z,22.30
2022-08-30T20:40:20.057Z,22.20
2022-08-30T20:42:47.456Z,22.20
2022-08-30T20:45:17.066Z,22.20
2022-08-30T20:47:44.565Z,22.20
2022-08-30T20:50:15.335Z,22.10
2022-08-30T20:52:43.141Z,22.10
2022-08-30T20:55:11.790Z,22.10
2022-08-30T20:57:39.760Z,22.20
2022-08-30T21:00:11.638Z,22.20
2022-08-30T21:02:42.685Z,22.10
2022-08-30T21:05:15.572Z,22.10
2022-08-30T21:07:46.764Z,22.10
2022-08-30T21:10:21.169Z,22.00
2022-08-30T21:12:50.302Z,22.00
2022-08-30T21:15:34.420Z,22.00
2022-08-30T21:18:04.221Z,22.00
2022-08-30T21:20:31.362Z,21.90
2022-08-30T21:22:58.439Z,21.90
2022-08-30T21:25:25.375Z,21.90
2022-08-30T21:27:53.964Z,21.90
2022-08-30T21:30:20.970Z,21.80
2022-08-30T21:32:47.988Z,21.80
2022-08-30T21:35:33.280Z,21.80
2022-08-30T21:38:00.300Z,21.80
2022-08-30T21:40:27.446Z,21.70
2022-08-30T21:42:54.495Z,21.70
2022-08-30T21:45:21.483Z,21.70
2022-08-30T21:47:48.514Z,21.60
2022-08-30T21:50:15.431Z,21.50
2022-08-30T21:52:42.514Z,21.50
2022-08-30T21:55:09.729Z,21.40
2022-08-30T21:57:37.034Z,21.40
2022-08-30T22:00:08.645Z,21.40
2022-08-30T22:02:35.700Z,21.30
2022-08-30T22:05:02.724Z,21.30
2022-08-30T22:07:29.729Z,21.20
2022-08-30T22:09:56.671Z,21.20
2022-08-30T22:12:23.616Z,21.20
2022-08-30T22:14:53.219Z,21.10
2022-08-30T22:17:20.856Z,21.20
2022-08-30T22:19:47.971Z,21.20
2022-08-30T22:22:14.980Z,21.20
2022-08-30T22:24:42.220Z,21.10
2022-08-30T22:27:09.335Z,21.10
2022-08-30T22:29:36.408Z,21.10
2022-08-30T22:32:03.717Z,21.00
2022-08-30T22:34:31.975Z,21.00
2022-08-30T22:36:59.578Z,20.90
2022-08-30T22:39:27.561Z,20.80
2022-08-30T22:41:54.688Z,20.80
2022-08-30T22:44:21.743Z,20.80
2022-08-30T22:46:48.775Z,20.80
2022-08-30T22:49:15.770Z,20.70
2022-08-30T22:51:43.584Z,20.70
2022-08-30T22:54:10.878Z,20.80
2022-08-30T22:56:39.261Z,20.80
2022-08-30T22:59:07.179Z,20.70
2022-08-30T23:01:37.964Z,20.70
2022-08-30T23:04:07.046Z,20.70
2022-08-30T23:06:34.643Z,20.70
2022-08-30T23:09:01.753Z,20.70
2022-08-30T23:11:29.481Z,20.70
2022-08-30T23:13:58.926Z,20.70
2022-08-30T23:16:25.925Z,20.60
2022-08-30T23:18:52.883Z,20.60
2022-08-30T23:21:23.561Z,20.50
2022-08-30T23:24:10.422Z,20.50
2022-08-30T23:26:57.266Z,20.60
2022-08-30T23:29:43.558Z,20.50
2022-08-30T23:32:28.991Z,20.50
2022-08-30T23:35:14.765Z,20.50
2022-08-30T23:38:00.669Z,20.40
2022-08-30T23:40:46.305Z,20.30
2022-08-30T23:43:32.117Z,20.30
2022-08-30T23:46:19.087Z,20.40
2022-08-30T23:49:09.215Z,20.30
2022-08-30T23:51:56.650Z,20.20
2022-08-30T23:54:43.700Z,20.20
2022-08-30T23:57:29.353Z,20.20
